sensor_id;sensor_type;location;lat;lon;timestamp;temperature;humidity
5429;DHT22;2737;52.386;9.980;2022-10-03T00:01:57;10.00;99.90
5429;DHT22;2737;52.386;9.980;2022-10-03T00:04:49;10.00;99.90
5429;DHT22;2737;52.386;9.980;2022-10-03T00:07:38;10.00;99.90
5429;DHT22;2737;52.386;9.980;2022-10-03T00:10:20;9.90;99.90
5429;DHT22;2737;52.386;9.980;2022-10-03T00:13:01;9.90;99.90
5429;DHT22;2737;52.386;9.980;2022-10-03T00:15:35;10.00;99.90
5429;DHT22;2737;52.386;9.980;2022-10-03T00:18:13;9.90;99.90
5429;DHT22;2737;52.386;9.980;2022-10-03T00:20:50;9.90;99.90
5429;DHT22;2737;52.386;9.980;2022-10-03T00:23:24;9.90;99.90
5429;DHT22;2737;52.386;9.980;2022-10-03T00:26:03;9.90;99.90
5429;DHT22;2737;52.386;9.980;2022-10-03T00:29:01;10.00;99.90
5429;DHT22;2737;52.386;9.980;2022-10-03T00:31:41;10.00;99.90
5429;DHT22;2737;52.386;9.980;2022-10-03T00:34:17;10.00;99.90
5429;DHT22;2737;52.386;9.980;2022-10-03T00:36:52;10.00;99.90
5429;DHT22;2737;52.386;9.980;2022-10-03T00:39:46;10.00;99.90
5429;DHT22;2737;52.386;9.980;2022-10-03T00:42:42;10.00;99.90
5429;DHT22;2737;52.386;9.980;2022-10-03T00:45:51;10.00;99.90
5429;DHT22;2737;52.386;9.980;2022-10-03T00:51:38;10.10;99.90
5429;DHT22;2737;52.386;9.980;2022-10-03T00:54:44;10.10;99.90
5429;DHT22;2737;52.386;9.980;2022-10-03T00:57:38;10.20;99.90
5429;DHT22;2737;52.386;9.980;2022-10-03T01:00:17;10.20;99.90
5429;DHT22;2737;52.386;9.980;2022-10-03T01:02:53;10.20;99.90
5429;DHT22;2737;52.386;9.980;2022-10-03T01:05:30;10.10;99.90
5429;DHT22;2737;52.386;9.980;2022-10-03T01:08:28;10.20;99.90
5429;DHT22;2737;52.386;9.980;2022-10-03T01:11:05;10.20;99.90
5429;DHT22;2737;52.386;9.980;2022-10-03T01:13:47;10.10;99.90
5429;DHT22;2737;52.386;9.980;2022-10-03T01:16:21;10.20;99.90
5429;DHT22;2737;52.386;9.980;2022-10-03T01:18:59;10.10;99.90
5429;DHT22;2737;52.386;9.980;2022-10-03T01:21:36;10.10;99.90
5429;DHT22;2737;52.386;9.980;2022-10-03T01:27:20;10.20;99.90
5429;DHT22;2737;52.386;9.980;2022-10-03T01:29:54;10.20;99.90
5429;DHT22;2737;52.386;9.980;2022-10-03T01:32:45;10.20;99.90
5429;DHT22;2737;52.386;9.980;2022-10-03T01:35:23;10.20;99.90
5429;DHT22;2737;52.386;9.980;2022-10-03T01:37:59;10.20;99.90
5429;DHT22;2737;52.386;9.980;2022-10-03T01:40:33;10.20;99.90
5429;DHT22;2737;52.386;9.980;2022-10-03T01:43:08;10.20;99.90
5429;DHT22;2737;52.386;9.980;2022-10-03T01:45:48;10.20;99.90
5429;DHT22;2737;52.386;9.980;2022-10-03T01:48:22;10.20;99.90
5429;DHT22;2737;52.386;9.980;2022-10-03T01:51:00;10.10;99.90
5429;DHT22;2737;52.386;9.980;2022-10-03T01:53:37;10.10;99.90
5429;DHT22;2737;52.386;9.980;2022-10-03T01:56:11;10.10;99.90
5429;DHT22;2737;52.386;9.980;2022-10-03T01:58:48;10.10;99.90
5429;DHT22;2737;52.386;9.980;2022-10-03T02:01:28;10.20;99.90
5429;DHT22;2737;52.386;9.980;2022-10-03T02:04:04;10.20;99.90
5429;DHT22;2737;52.386;9.980;2022-10-03T02:06:41;10.20;99.90
5429;DHT22;2737;52.386;9.980;2022-10-03T02:09:18;10.20;99.90
5429;DHT22;2737;52.386;9.980;2022-10-03T02:11:59;10.20;99.90
5429;DHT22;2737;52.386;9.980;2022-10-03T02:14:33;10.20;99.90
5429;DHT22;2737;52.386;9.980;2022-10-03T02:17:05;10.20;99.90
5429;DHT22;2737;52.386;9.980;2022-10-03T02:19:41;10.20;99.90
5429;DHT22;2737;52.386;9.980;2022-10-03T02:22:14;10.20;99.90
5429;DHT22;2737;52.386;9.980;2022-10-03T02:24:47;10.20;99.90
5429;DHT22;2737;52.386;9.980;2022-10-03T02:27:41;10.30;99.90
5429;DHT22;2737;52.386;9.980;2022-10-03T02:30:20;10.20;99.90
5429;DHT22;2737;52.386;9.980;2022-10-03T02:39:34;10.20;99.90
5429;DHT22;2737;52.386;9.980;2022-10-03T02:42:25;10.20;99.90
5429;DHT22;2737;52.386;9.980;2022-10-03T02:48:32;10.20;99.90
5429;DHT22;2737;52.386;9.980;2022-10-03T02:51:25;10.20;99.90
5429;DHT22;2737;52.386;9.980;2022-10-03T02:54:29;10.20;99.90
5429;DHT22;2737;52.386;9.980;2022-10-03T03:00:11;10.20;99.90
5429;DHT22;2737;52.386;9.980;2022-10-03T03:03:21;10.20;99.90
5429;DHT22;2737;52.386;9.980;2022-10-03T03:06:12;10.20;99.90
5429;DHT22;2737;52.386;9.980;2022-10-03T03:09:01;10.10;99.90
5429;DHT22;2737;52.386;9.980;2022-10-03T03:17:33;10.00;99.90
5429;DHT22;2737;52.386;9.980;2022-10-03T03:20:13;10.00;99.90
5429;DHT22;2737;52.386;9.980;2022-10-03T03:22:58;9.90;99.90
5429;DHT22;2737;52.386;9.980;2022-10-03T03:25:50;9.90;99.90
5429;DHT22;2737;52.386;9.980;2022-10-03T03:28:29;9.90;99.90
5429;DHT22;2737;52.386;9.980;2022-10-03T03:31:07;9.80;99.90
5429;DHT22;2737;52.386;9.980;2022-10-03T03:33:46;9.80;99.90
5429;DHT22;2737;52.386;9.980;2022-10-03T03:36:25;9.80;99.90
5429;DHT22;2737;52.386;9.980;2022-10-03T03:39:02;9.80;99.90
5429;DHT22;2737;52.386;9.980;2022-10-03T03:41:50;9.80;99.90
5429;DHT22;2737;52.386;9.980;2022-10-03T03:44:36;9.80;99.90
5429;DHT22;2737;52.386;9.980;2022-10-03T03:47:22;9.70;99.90
5429;DHT22;2737;52.386;9.980;2022-10-03T03:50:09;9.70;99.90
5429;DHT22;2737;52.386;9.980;2022-10-03T03:52:51;9.70;99.90
5429;DHT22;2737;52.386;9.980;2022-10-03T03:55:41;9.70;99.90
5429;DHT22;2737;52.386;9.980;2022-10-03T03:58:27;9.80;99.90
5429;DHT22;2737;52.386;9.980;2022-10-03T04:01:15;9.80;99.90
5429;DHT22;2737;52.386;9.980;2022-10-03T04:03:52;9.80;99.90
5429;DHT22;2737;52.386;9.980;2022-10-03T04:06:35;9.80;99.90
5429;DHT22;2737;52.386;9.980;2022-10-03T04:09:25;9.80;99.90
5429;DHT22;2737;52.386;9.980;2022-10-03T04:12:03;9.80;99.90
5429;DHT22;2737;52.386;9.980;2022-10-03T04:14:59;9.80;99.90
5429;DHT22;2737;52.386;9.980;2022-10-03T04:17:42;9.80;99.90
5429;DHT22;2737;52.386;9.980;2022-10-03T04:20:52;9.70;99.90
5429;DHT22;2737;52.386;9.980;2022-10-03T04:23:42;9.70;99.90
5429;DHT22;2737;52.386;9.980;2022-10-03T04:26:35;9.70;99.90
5429;DHT22;2737;52.386;9.980;2022-10-03T04:29:24;9.60;99.90
5429;DHT22;2737;52.386;9.980;2022-10-03T04:32:06;9.60;99.90
5429;DHT22;2737;52.386;9.980;2022-10-03T04:34:48;9.60;99.90
5429;DHT22;2737;52.386;9.980;2022-10-03T04:37:21;9.60;99.90
5429;DHT22;2737;52.386;9.980;2022-10-03T04:40:00;9.60;99.90
5429;DHT22;2737;52.386;9.980;2022-10-03T04:42:44;9.60;99.90
5429;DHT22;2737;52.386;9.980;2022-10-03T04:45:50;9.60;99.90
5429;DHT22;2737;52.386;9.980;2022-10-03T04:48:29;9.60;99.90
5429;DHT22;2737;52.386;9.980;2022-10-03T04:51:06;9.60;99.90
5429;DHT22;2737;52.386;9.980;2022-10-03T04:53:43;9.60;99.90
5429;DHT22;2737;52.386;9.980;2022-10-03T04:56:22;9.50;99.90
5429;DHT22;2737;52.386;9.980;2022-10-03T04:59:00;9.50;99.90
5429;DHT22;2737;52.386;9.980;2022-10-03T05:01:34;9.50;99.90
5429;DHT22;2737;52.386;9.980;2022-10-03T05:04:15;9.50;99.90
5429;DHT22;2737;52.386;9.980;2022-10-03T05:06:54;9.50;99.90
5429;DHT22;2737;52.386;9.980;2022-10-03T05:09:31;9.50;99.90
5429;DHT22;2737;52.386;9.980;2022-10-03T05:12:06;9.40;99.90
5429;DHT22;2737;52.386;9.980;2022-10-03T05:14:48;9.40;99.90
5429;DHT22;2737;52.386;9.980;2022-10-03T05:17:23;9.40;99.90
5429;DHT22;2737;52.386;9.980;2022-10-03T05:20:24;9.50;99.90
5429;DHT22;2737;52.386;9.980;2022-10-03T05:23:04;9.40;99.90
5429;DHT22;2737;52.386;9.980;2022-10-03T05:25:42;9.50;99.90
5429;DHT22;2737;52.386;9.980;2022-10-03T05:28:19;9.40;99.90
5429;DHT22;2737;52.386;9.980;2022-10-03T05:30:52;9.40;99.90
5429;DHT22;2737;52.386;9.980;2022-10-03T05:33:32;9.40;99.90
5429;DHT22;2737;52.386;9.980;2022-10-03T05:36:11;9.40;99.90
5429;DHT22;2737;52.386;9.980;2022-10-03T05:39:13;9.50;99.90
5429;DHT22;2737;52.386;9.980;2022-10-03T05:41:51;9.50;99.90
5429;DHT22;2737;52.386;9.980;2022-10-03T05:44:22;9.50;99.90
5429;DHT22;2737;52.386;9.980;2022-10-03T05:46:58;9.60;99.90
5429;DHT22;2737;52.386;9.980;2022-10-03T05:49:37;9.60;99.90
5429;DHT22;2737;52.386;9.980;2022-10-03T05:52:37;9.70;99.90
5429;DHT22;2737;52.386;9.980;2022-10-03T05:55:37;9.70;99.90
5429;DHT22;2737;52.386;9.980;2022-10-03T05:58:32;9.70;99.90
5429;DHT22;2737;52.386;9.980;2022-10-03T06:01:23;9.70;99.90
5429;DHT22;2737;52.386;9.980;2022-10-03T06:04:13;9.70;99.90
5429;DHT22;2737;52.386;9.980;2022-10-03T06:07:01;9.70;99.90
5429;DHT22;2737;52.386;9.980;2022-10-03T06:12:29;9.80;99.90
5429;DHT22;2737;52.386;9.980;2022-10-03T06:15:27;9.80;99.90
5429;DHT22;2737;52.386;9.980;2022-10-03T06:18:10;9.90;99.90
5429;DHT22;2737;52.386;9.980;2022-10-03T06:21:04;9.90;99.90
5429;DHT22;2737;52.386;9.980;2022-10-03T06:24:00;10.00;99.90
5429;DHT22;2737;52.386;9.980;2022-10-03T06:26:49;10.00;99.90
5429;DHT22;2737;52.386;9.980;2022-10-03T06:29:47;10.10;99.90
5429;DHT22;2737;52.386;9.980;2022-10-03T06:35:55;10.20;99.90
5429;DHT22;2737;52.386;9.980;2022-10-03T06:42:14;10.20;99.90
5429;DHT22;2737;52.386;9.980;2022-10-03T06:48:00;10.20;99.90
5429;DHT22;2737;52.386;9.980;2022-10-03T06:50:48;10.10;99.90
5429;DHT22;2737;52.386;9.980;2022-10-03T06:53:43;10.20;99.90
5429;DHT22;2737;52.386;9.980;2022-10-03T06:56:53;10.20;99.90
5429;DHT22;2737;52.386;9.980;2022-10-03T06:59:52;10.20;99.90
5429;DHT22;2737;52.386;9.980;2022-10-03T07:03:03;10.30;99.90
5429;DHT22;2737;52.386;9.980;2022-10-03T07:15:19;10.50;99.90
5429;DHT22;2737;52.386;9.980;2022-10-03T07:21:03;10.60;99.90
5429;DHT22;2737;52.386;9.980;2022-10-03T07:24:06;10.70;99.90
5429;DHT22;2737;52.386;9.980;2022-10-03T07:26:56;10.70;99.90
5429;DHT22;2737;52.386;9.980;2022-10-03T07:29:38;10.80;99.90
5429;DHT22;2737;52.386;9.980;2022-10-03T07:32:28;10.80;99.90
5429;DHT22;2737;52.386;9.980;2022-10-03T07:35:34;10.90;99.90
5429;DHT22;2737;52.386;9.980;2022-10-03T07:38:45;11.10;99.90
5429;DHT22;2737;52.386;9.980;2022-10-03T07:44:56;11.40;99.90
5429;DHT22;2737;52.386;9.980;2022-10-03T07:48:00;11.60;99.90
5429;DHT22;2737;52.386;9.980;2022-10-03T07:50:57;11.70;99.90
5429;DHT22;2737;52.386;9.980;2022-10-03T07:57:01;11.90;99.90
5429;DHT22;2737;52.386;9.980;2022-10-03T08:00:05;12.00;99.90
5429;DHT22;2737;52.386;9.980;2022-10-03T08:05:48;12.00;99.90
5429;DHT22;2737;52.386;9.980;2022-10-03T08:08:41;12.10;99.90
5429;DHT22;2737;52.386;9.980;2022-10-03T08:11:26;12.00;99.90
5429;DHT22;2737;52.386;9.980;2022-10-03T08:14:00;12.10;99.90
5429;DHT22;2737;52.386;9.980;2022-10-03T08:20:04;12.40;99.90
5429;DHT22;2737;52.386;9.980;2022-10-03T08:22:46;12.50;99.90
5429;DHT22;2737;52.386;9.980;2022-10-03T08:25:32;12.50;99.90
5429;DHT22;2737;52.386;9.980;2022-10-03T08:28:23;12.60;99.90
5429;DHT22;2737;52.386;9.980;2022-10-03T08:31:22;12.60;99.90
5429;DHT22;2737;52.386;9.980;2022-10-03T08:34:13;12.70;99.90
5429;DHT22;2737;52.386;9.980;2022-10-03T08:37:13;12.80;99.90
5429;DHT22;2737;52.386;9.980;2022-10-03T08:39:59;12.90;99.90
5429;DHT22;2737;52.386;9.980;2022-10-03T08:45:59;12.90;99.90
5429;DHT22;2737;52.386;9.980;2022-10-03T08:48:49;13.00;99.90
5429;DHT22;2737;52.386;9.980;2022-10-03T08:54:48;13.20;99.90
5429;DHT22;2737;52.386;9.980;2022-10-03T08:57:44;13.20;99.90
5429;DHT22;2737;52.386;9.980;2022-10-03T09:00:19;13.30;99.90
5429;DHT22;2737;52.386;9.980;2022-10-03T09:03:15;13.40;99.90
5429;DHT22;2737;52.386;9.980;2022-10-03T09:09:22;13.50;99.90
5429;DHT22;2737;52.386;9.980;2022-10-03T09:12:22;13.60;99.90
5429;DHT22;2737;52.386;9.980;2022-10-03T09:15:32;13.70;99.90
5429;DHT22;2737;52.386;9.980;2022-10-03T09:18:17;13.80;99.90
5429;DHT22;2737;52.386;9.980;2022-10-03T09:21:31;13.90;99.90
5429;DHT22;2737;52.386;9.980;2022-10-03T09:24:23;14.00;99.90
5429;DHT22;2737;52.386;9.980;2022-10-03T09:27:21;14.10;99.90
5429;DHT22;2737;52.386;9.980;2022-10-03T09:30:07;14.10;99.90
5429;DHT22;2737;52.386;9.980;2022-10-03T09:33:05;14.10;99.90
5429;DHT22;2737;52.386;9.980;2022-10-03T09:35:57;14.20;99.90
5429;DHT22;2737;52.386;9.980;2022-10-03T09:51:11;14.40;99.90
5429;DHT22;2737;52.386;9.980;2022-10-03T09:54:24;14.40;99.90
5429;DHT22;2737;52.386;9.980;2022-10-03T10:00:18;14.40;99.90
5429;DHT22;2737;52.386;9.980;2022-10-03T10:03:09;14.20;99.90
5429;DHT22;2737;52.386;9.980;2022-10-03T10:06:23;14.20;99.90
5429;DHT22;2737;52.386;9.980;2022-10-03T10:09:31;14.10;99.90
5429;DHT22;2737;52.386;9.980;2022-10-03T10:12:31;14.10;99.90
5429;DHT22;2737;52.386;9.980;2022-10-03T10:15:41;14.10;99.90
5429;DHT22;2737;52.386;9.980;2022-10-03T10:21:49;14.00;99.90
5429;DHT22;2737;52.386;9.980;2022-10-03T10:27:52;13.90;99.90
5429;DHT22;2737;52.386;9.980;2022-10-03T10:30:44;13.90;99.90
5429;DHT22;2737;52.386;9.980;2022-10-03T10:33:51;14.00;99.90
5429;DHT22;2737;52.386;9.980;2022-10-03T10:37:14;14.20;99.90
5429;DHT22;2737;52.386;9.980;2022-10-03T10:52:47;14.80;99.90
5429;DHT22;2737;52.386;9.980;2022-10-03T10:59:31;15.10;99.90
5429;DHT22;2737;52.386;9.980;2022-10-03T11:02:35;15.40;99.90
5429;DHT22;2737;52.386;9.980;2022-10-03T11:05:35;15.40;99.90
5429;DHT22;2737;52.386;9.980;2022-10-03T11:12:09;15.30;99.90
5429;DHT22;2737;52.386;9.980;2022-10-03T11:21:36;15.30;99.90
5429;DHT22;2737;52.386;9.980;2022-10-03T11:24:44;15.30;99.90
5429;DHT22;2737;52.386;9.980;2022-10-03T11:30:55;15.20;99.90
5429;DHT22;2737;52.386;9.980;2022-10-03T11:36:57;15.40;99.90
5429;DHT22;2737;52.386;9.980;2022-10-03T11:39:37;15.50;99.90
5429;DHT22;2737;52.386;9.980;2022-10-03T11:42:17;15.50;99.90
5429;DHT22;2737;52.386;9.980;2022-10-03T11:44:53;15.50;99.90
5429;DHT22;2737;52.386;9.980;2022-10-03T11:50:38;15.50;99.90
5429;DHT22;2737;52.386;9.980;2022-10-03T11:53:19;15.50;99.90
5429;DHT22;2737;52.386;9.980;2022-10-03T11:55:52;15.50;99.90
5429;DHT22;2737;52.386;9.980;2022-10-03T11:58:41;15.40;99.90
5429;DHT22;2737;52.386;9.980;2022-10-03T12:01:22;15.40;99.90
5429;DHT22;2737;52.386;9.980;2022-10-03T12:03:59;15.30;99.90
5429;DHT22;2737;52.386;9.980;2022-10-03T12:06:40;15.30;99.90
5429;DHT22;2737;52.386;9.980;2022-10-03T12:09:45;15.40;99.90
5429;DHT22;2737;52.386;9.980;2022-10-03T12:12:20;15.40;99.90
5429;DHT22;2737;52.386;9.980;2022-10-03T12:14:53;15.40;99.90
5429;DHT22;2737;52.386;9.980;2022-10-03T12:17:30;15.50;99.90
5429;DHT22;2737;52.386;9.980;2022-10-03T12:20:03;15.50;99.90
5429;DHT22;2737;52.386;9.980;2022-10-03T12:22:40;15.50;99.90
5429;DHT22;2737;52.386;9.980;2022-10-03T12:25:19;15.50;99.90
5429;DHT22;2737;52.386;9.980;2022-10-03T12:27:54;15.50;99.90
5429;DHT22;2737;52.386;9.980;2022-10-03T12:30:24;15.60;99.90
5429;DHT22;2737;52.386;9.980;2022-10-03T12:35:52;15.70;99.90
5429;DHT22;2737;52.386;9.980;2022-10-03T12:38:36;15.60;99.90
5429;DHT22;2737;52.386;9.980;2022-10-03T12:41:17;15.70;99.90
5429;DHT22;2737;52.386;9.980;2022-10-03T12:43:55;15.70;99.90
5429;DHT22;2737;52.386;9.980;2022-10-03T12:46:36;15.70;99.90
5429;DHT22;2737;52.386;9.980;2022-10-03T12:49:12;15.90;99.90
5429;DHT22;2737;52.386;9.980;2022-10-03T12:51:50;16.00;99.90
5429;DHT22;2737;52.386;9.980;2022-10-03T12:54:29;16.10;99.90
5429;DHT22;2737;52.386;9.980;2022-10-03T12:57:15;16.10;99.90
5429;DHT22;2737;52.386;9.980;2022-10-03T12:59:53;16.10;99.90
5429;DHT22;2737;52.386;9.980;2022-10-03T13:02:27;16.00;99.90
5429;DHT22;2737;52.386;9.980;2022-10-03T13:05:28;15.90;99.90
5429;DHT22;2737;52.386;9.980;2022-10-03T13:08:00;15.90;99.90
5429;DHT22;2737;52.386;9.980;2022-10-03T13:10:37;15.90;99.90
5429;DHT22;2737;52.386;9.980;2022-10-03T13:13:19;15.90;99.90
5429;DHT22;2737;52.386;9.980;2022-10-03T13:16:08;16.00;99.90
5429;DHT22;2737;52.386;9.980;2022-10-03T13:18:44;16.10;99.90
5429;DHT22;2737;52.386;9.980;2022-10-03T13:21:18;16.10;99.90
5429;DHT22;2737;52.386;9.980;2022-10-03T13:23:49;16.10;99.90
5429;DHT22;2737;52.386;9.980;2022-10-03T13:26:20;16.10;99.90
5429;DHT22;2737;52.386;9.980;2022-10-03T13:32:15;16.20;99.90
5429;DHT22;2737;52.386;9.980;2022-10-03T13:35:04;16.10;99.90
5429;DHT22;2737;52.386;9.980;2022-10-03T13:40:46;16.20;99.90
5429;DHT22;2737;52.386;9.980;2022-10-03T13:43:18;16.30;99.90
5429;DHT22;2737;52.386;9.980;2022-10-03T13:45:50;16.20;99.90
5429;DHT22;2737;52.386;9.980;2022-10-03T13:48:23;16.20;99.90
5429;DHT22;2737;52.386;9.980;2022-10-03T13:50:57;16.20;99.90
5429;DHT22;2737;52.386;9.980;2022-10-03T13:53:49;16.20;99.90
5429;DHT22;2737;52.386;9.980;2022-10-03T13:56:37;16.20;99.90
5429;DHT22;2737;52.386;9.980;2022-10-03T13:59:22;16.20;99.90
5429;DHT22;2737;52.386;9.980;2022-10-03T14:01:57;16.10;99.90
5429;DHT22;2737;52.386;9.980;2022-10-03T14:04:50;16.10;99.90
5429;DHT22;2737;52.386;9.980;2022-10-03T14:07:28;16.10;99.90
5429;DHT22;2737;52.386;9.980;2022-10-03T14:13:10;16.00;99.90
5429;DHT22;2737;52.386;9.980;2022-10-03T14:15:49;15.90;99.90
5429;DHT22;2737;52.386;9.980;2022-10-03T14:18:38;15.80;99.90
5429;DHT22;2737;52.386;9.980;2022-10-03T14:21:48;15.80;99.90
5429;DHT22;2737;52.386;9.980;2022-10-03T14:24:36;15.80;99.90
5429;DHT22;2737;52.386;9.980;2022-10-03T14:27:27;15.60;99.90
5429;DHT22;2737;52.386;9.980;2022-10-03T14:30:03;15.60;99.90
5429;DHT22;2737;52.386;9.980;2022-10-03T14:32:37;15.70;99.90
5429;DHT22;2737;52.386;9.980;2022-10-03T14:35:12;15.80;99.90
5429;DHT22;2737;52.386;9.980;2022-10-03T14:37:48;15.90;99.90
5429;DHT22;2737;52.386;9.980;2022-10-03T14:40:20;16.00;99.90
5429;DHT22;2737;52.386;9.980;2022-10-03T14:43:24;15.90;99.90
5429;DHT22;2737;52.386;9.980;2022-10-03T14:45:56;15.90;99.90
5429;DHT22;2737;52.386;9.980;2022-10-03T14:48:26;15.90;99.90
5429;DHT22;2737;52.386;9.980;2022-10-03T14:51:00;15.90;99.90
5429;DHT22;2737;52.386;9.980;2022-10-03T14:53:32;15.90;99.90
5429;DHT22;2737;52.386;9.980;2022-10-03T14:56:05;15.80;99.90
5429;DHT22;2737;52.386;9.980;2022-10-03T14:58:42;15.60;99.90
5429;DHT22;2737;52.386;9.980;2022-10-03T15:01:13;15.50;99.90
5429;DHT22;2737;52.386;9.980;2022-10-03T15:03:53;15.50;99.90
5429;DHT22;2737;52.386;9.980;2022-10-03T15:06:50;15.40;99.90
5429;DHT22;2737;52.386;9.980;2022-10-03T15:09:26;15.40;99.90
5429;DHT22;2737;52.386;9.980;2022-10-03T15:12:04;15.40;99.90
5429;DHT22;2737;52.386;9.980;2022-10-03T15:14:36;15.40;99.90
5429;DHT22;2737;52.386;9.980;2022-10-03T15:17:15;15.50;99.90
5429;DHT22;2737;52.386;9.980;2022-10-03T15:19:45;15.50;99.90
5429;DHT22;2737;52.386;9.980;2022-10-03T15:22:30;15.50;99.90
5429;DHT22;2737;52.386;9.980;2022-10-03T15:25:03;15.50;99.90
5429;DHT22;2737;52.386;9.980;2022-10-03T15:27:33;15.50;99.90
5429;DHT22;2737;52.386;9.980;2022-10-03T15:30:04;15.50;99.90
5429;DHT22;2737;52.386;9.980;2022-10-03T15:32:34;15.40;99.90
5429;DHT22;2737;52.386;9.980;2022-10-03T15:35:03;15.50;99.90
5429;DHT22;2737;52.386;9.980;2022-10-03T15:37:35;15.40;99.90
5429;DHT22;2737;52.386;9.980;2022-10-03T15:40:08;15.40;99.90
5429;DHT22;2737;52.386;9.980;2022-10-03T15:42:58;15.40;99.90
5429;DHT22;2737;52.386;9.980;2022-10-03T15:45:31;15.30;99.90
5429;DHT22;2737;52.386;9.980;2022-10-03T15:48:03;15.30;99.90
5429;DHT22;2737;52.386;9.980;2022-10-03T15:50:33;15.20;99.90
5429;DHT22;2737;52.386;9.980;2022-10-03T15:53:05;15.20;99.90
5429;DHT22;2737;52.386;9.980;2022-10-03T15:55:36;15.20;99.90
5429;DHT22;2737;52.386;9.980;2022-10-03T15:58:13;15.20;99.90
5429;DHT22;2737;52.386;9.980;2022-10-03T16:00:51;15.20;99.90
5429;DHT22;2737;52.386;9.980;2022-10-03T16:03:25;15.20;99.90
5429;DHT22;2737;52.386;9.980;2022-10-03T16:06:01;15.20;99.90
5429;DHT22;2737;52.386;9.980;2022-10-03T16:08:31;15.20;99.90
5429;DHT22;2737;52.386;9.980;2022-10-03T16:11:10;15.10;99.90
5429;DHT22;2737;52.386;9.980;2022-10-03T16:13:42;15.10;99.90
5429;DHT22;2737;52.386;9.980;2022-10-03T16:16:16;15.00;99.90
5429;DHT22;2737;52.386;9.980;2022-10-03T16:18:52;15.00;99.90
5429;DHT22;2737;52.386;9.980;2022-10-03T16:21:31;15.00;99.90
5429;DHT22;2737;52.386;9.980;2022-10-03T16:24:01;14.90;99.90
5429;DHT22;2737;52.386;9.980;2022-10-03T16:26:34;14.90;99.90
5429;DHT22;2737;52.386;9.980;2022-10-03T16:29:12;14.80;99.90
5429;DHT22;2737;52.386;9.980;2022-10-03T16:31:47;14.80;99.90
5429;DHT22;2737;52.386;9.980;2022-10-03T16:34:18;14.80;99.90
5429;DHT22;2737;52.386;9.980;2022-10-03T16:36:48;14.70;99.90
5429;DHT22;2737;52.386;9.980;2022-10-03T16:39:19;14.70;99.90
5429;DHT22;2737;52.386;9.980;2022-10-03T16:41:49;14.70;99.90
5429;DHT22;2737;52.386;9.980;2022-10-03T16:44:22;14.70;99.90
5429;DHT22;2737;52.386;9.980;2022-10-03T16:46:53;14.60;99.90
5429;DHT22;2737;52.386;9.980;2022-10-03T16:49:35;14.60;99.90
5429;DHT22;2737;52.386;9.980;2022-10-03T16:52:27;14.60;99.90
5429;DHT22;2737;52.386;9.980;2022-10-03T16:54:58;14.60;99.90
5429;DHT22;2737;52.386;9.980;2022-10-03T16:57:31;14.50;99.90
5429;DHT22;2737;52.386;9.980;2022-10-03T17:00:03;14.50;99.90
5429;DHT22;2737;52.386;9.980;2022-10-03T17:02:35;14.50;99.90
5429;DHT22;2737;52.386;9.980;2022-10-03T17:05:06;14.50;99.90
5429;DHT22;2737;52.386;9.980;2022-10-03T17:07:39;14.50;99.90
5429;DHT22;2737;52.386;9.980;2022-10-03T17:10:23;14.40;99.90
5429;DHT22;2737;52.386;9.980;2022-10-03T17:12:55;14.50;99.90
5429;DHT22;2737;52.386;9.980;2022-10-03T17:15:28;14.40;99.90
5429;DHT22;2737;52.386;9.980;2022-10-03T17:18:06;14.40;99.90
5429;DHT22;2737;52.386;9.980;2022-10-03T17:20:39;14.40;99.90
5429;DHT22;2737;52.386;9.980;2022-10-03T17:23:11;14.30;99.90
5429;DHT22;2737;52.386;9.980;2022-10-03T17:25:47;14.40;99.90
5429;DHT22;2737;52.386;9.980;2022-10-03T17:28:28;14.40;99.90
5429;DHT22;2737;52.386;9.980;2022-10-03T17:31:00;14.30;99.90
5429;DHT22;2737;52.386;9.980;2022-10-03T17:33:37;14.30;99.90
5429;DHT22;2737;52.386;9.980;2022-10-03T17:39:18;14.30;99.90
5429;DHT22;2737;52.386;9.980;2022-10-03T17:41:50;14.30;99.90
5429;DHT22;2737;52.386;9.980;2022-10-03T17:44:27;14.30;99.90
5429;DHT22;2737;52.386;9.980;2022-10-03T17:47:05;14.30;99.90
5429;DHT22;2737;52.386;9.980;2022-10-03T17:49:44;14.20;99.90
5429;DHT22;2737;52.386;9.980;2022-10-03T17:52:16;14.20;99.90
5429;DHT22;2737;52.386;9.980;2022-10-03T17:54:46;14.20;99.90
5429;DHT22;2737;52.386;9.980;2022-10-03T17:57:20;14.20;99.90
5429;DHT22;2737;52.386;9.980;2022-10-03T17:59:54;14.10;99.90
5429;DHT22;2737;52.386;9.980;2022-10-03T18:02:31;14.10;99.90
5429;DHT22;2737;52.386;9.980;2022-10-03T18:05:07;14.10;99.90
5429;DHT22;2737;52.386;9.980;2022-10-03T18:07:38;14.10;99.90
5429;DHT22;2737;52.386;9.980;2022-10-03T18:10:18;14.00;99.90
5429;DHT22;2737;52.386;9.980;2022-10-03T18:12:47;14.00;99.90
5429;DHT22;2737;52.386;9.980;2022-10-03T18:15:36;14.00;99.90
5429;DHT22;2737;52.386;9.980;2022-10-03T18:21:16;14.00;99.90
5429;DHT22;2737;52.386;9.980;2022-10-03T18:24:05;13.90;99.90
5429;DHT22;2737;52.386;9.980;2022-10-03T18:26:41;13.90;99.90
5429;DHT22;2737;52.386;9.980;2022-10-03T18:29:17;13.80;99.90
5429;DHT22;2737;52.386;9.980;2022-10-03T18:31:55;13.80;99.90
5429;DHT22;2737;52.386;9.980;2022-10-03T18:34:26;13.70;99.90
5429;DHT22;2737;52.386;9.980;2022-10-03T18:36:56;13.70;99.90
5429;DHT22;2737;52.386;9.980;2022-10-03T18:39:28;13.60;99.90
5429;DHT22;2737;52.386;9.980;2022-10-03T18:41:58;13.60;99.90
5429;DHT22;2737;52.386;9.980;2022-10-03T18:44:28;13.50;99.90
5429;DHT22;2737;52.386;9.980;2022-10-03T18:47:05;13.50;99.90
5429;DHT22;2737;52.386;9.980;2022-10-03T18:49:38;13.40;99.90
5429;DHT22;2737;52.386;9.980;2022-10-03T18:52:15;13.30;99.90
5429;DHT22;2737;52.386;9.980;2022-10-03T18:54:51;13.30;99.90
5429;DHT22;2737;52.386;9.980;2022-10-03T18:57:24;13.30;99.90
5429;DHT22;2737;52.386;9.980;2022-10-03T18:59:54;13.20;99.90
5429;DHT22;2737;52.386;9.980;2022-10-03T19:02:29;13.20;99.90
5429;DHT22;2737;52.386;9.980;2022-10-03T19:05:06;13.20;99.90
5429;DHT22;2737;52.386;9.980;2022-10-03T19:07:42;13.10;99.90
5429;DHT22;2737;52.386;9.980;2022-10-03T19:10:28;13.00;99.90
5429;DHT22;2737;52.386;9.980;2022-10-03T19:13:02;12.90;99.90
5429;DHT22;2737;52.386;9.980;2022-10-03T19:15:46;13.00;99.90
5429;DHT22;2737;52.386;9.980;2022-10-03T19:18:20;13.00;99.90
5429;DHT22;2737;52.386;9.980;2022-10-03T19:20:52;12.90;99.90
5429;DHT22;2737;52.386;9.980;2022-10-03T19:23:25;12.80;99.90
5429;DHT22;2737;52.386;9.980;2022-10-03T19:25:58;12.80;99.90
5429;DHT22;2737;52.386;9.980;2022-10-03T19:28:30;12.80;99.90
5429;DHT22;2737;52.386;9.980;2022-10-03T19:31:02;12.70;99.90
5429;DHT22;2737;52.386;9.980;2022-10-03T19:33:32;12.70;99.90
5429;DHT22;2737;52.386;9.980;2022-10-03T19:36:03;12.60;99.90
5429;DHT22;2737;52.386;9.980;2022-10-03T19:38:35;12.60;99.90
5429;DHT22;2737;52.386;9.980;2022-10-03T19:41:11;12.50;99.90
5429;DHT22;2737;52.386;9.980;2022-10-03T19:43:42;12.50;99.90
5429;DHT22;2737;52.386;9.980;2022-10-03T19:46:18;12.40;99.90
5429;DHT22;2737;52.386;9.980;2022-10-03T19:48:52;12.40;99.90
5429;DHT22;2737;52.386;9.980;2022-10-03T19:51:22;12.30;99.90
5429;DHT22;2737;52.386;9.980;2022-10-03T19:53:53;12.30;99.90
5429;DHT22;2737;52.386;9.980;2022-10-03T19:56:23;12.30;99.90
5429;DHT22;2737;52.386;9.980;2022-10-03T19:58:58;12.30;99.90
5429;DHT22;2737;52.386;9.980;2022-10-03T20:01:27;12.20;99.90
5429;DHT22;2737;52.386;9.980;2022-10-03T20:03:57;12.30;99.90
5429;DHT22;2737;52.386;9.980;2022-10-03T20:06:27;12.20;99.90
5429;DHT22;2737;52.386;9.980;2022-10-03T20:08:58;12.20;99.90
5429;DHT22;2737;52.386;9.980;2022-10-03T20:11:35;12.20;99.90